sensor_id;sensor_type;location;lat;lon;timestamp;temperature;humidity
62583;DHT22;48641;51.676;5.808;2024-01-11T00:01:48;11.30;49.10
62583;DHT22;48641;51.676;5.808;2024-01-11T00:04:14;11.30;49.40
62583;DHT22;48641;51.676;5.808;2024-01-11T00:06:43;11.30;49.50
62583;DHT22;48641;51.676;5.808;2024-01-11T00:09:09;11.30;49.60
62583;DHT22;48641;51.676;5.808;2024-01-11T00:11:35;11.30;49.70
62583;DHT22;48641;51.676;5.808;2024-01-11T00:14:00;11.20;49.80
62583;DHT22;48641;51.676;5.808;2024-01-11T00:16:26;11.20;49.80
62583;DHT22;48641;51.676;5.808;2024-01-11T00:18:51;11.30;50.00
62583;DHT22;48641;51.676;5.808;2024-01-11T00:21:17;11.20;49.90
62583;DHT22;48641;51.676;5.808;2024-01-11T00:23:43;11.20;49.90
62583;DHT22;48641;51.676;5.808;2024-01-11T00:26:08;11.20;50.00
62583;DHT22;48641;51.676;5.808;2024-01-11T00:28:34;11.20;50.00
62583;DHT22;48641;51.676;5.808;2024-01-11T00:30:59;11.20;49.90
62583;DHT22;48641;51.676;5.808;2024-01-11T00:33:25;11.20;50.00
62583;DHT22;48641;51.676;5.808;2024-01-11T00:35:50;11.20;50.00
62583;DHT22;48641;51.676;5.808;2024-01-11T00:38:16;11.20;50.00
62583;DHT22;48641;51.676;5.808;2024-01-11T00:40:42;11.20;50.00
62583;DHT22;48641;51.676;5.808;2024-01-11T00:43:07;11.20;49.90
62583;DHT22;48641;51.676;5.808;2024-01-11T00:45:33;11.20;50.00
62583;DHT22;48641;51.676;5.808;2024-01-11T00:47:59;11.10;49.90
62583;DHT22;48641;51.676;5.808;2024-01-11T00:50:24;11.10;49.90
62583;DHT22;48641;51.676;5.808;2024-01-11T00:52:50;11.10;50.00
62583;DHT22;48641;51.676;5.808;2024-01-11T00:55:15;11.10;50.00
62583;DHT22;48641;51.676;5.808;2024-01-11T00:57:41;11.10;49.90
62583;DHT22;48641;51.676;5.808;2024-01-11T01:00:07;11.10;49.90
62583;DHT22;48641;51.676;5.808;2024-01-11T01:02:33;11.10;49.90
62583;DHT22;48641;51.676;5.808;2024-01-11T01:04:59;11.10;49.90
62583;DHT22;48641;51.676;5.808;2024-01-11T01:07:24;11.10;50.00
62583;DHT22;48641;51.676;5.808;2024-01-11T01:09:50;11.10;50.00
62583;DHT22;48641;51.676;5.808;2024-01-11T01:12:15;11.10;50.00
62583;DHT22;48641;51.676;5.808;2024-01-11T01:14:41;11.10;50.00
62583;DHT22;48641;51.676;5.808;2024-01-11T01:17:06;11.00;49.90
62583;DHT22;48641;51.676;5.808;2024-01-11T01:19:32;11.10;50.00
62583;DHT22;48641;51.676;5.808;2024-01-11T01:21:58;11.00;50.00
62583;DHT22;48641;51.676;5.808;2024-01-11T01:24:24;11.10;50.00
62583;DHT22;48641;51.676;5.808;2024-01-11T01:26:49;11.00;50.00
62583;DHT22;48641;51.676;5.808;2024-01-11T01:29:16;11.00;50.00
62583;DHT22;48641;51.676;5.808;2024-01-11T01:31:41;11.00;50.10
62583;DHT22;48641;51.676;5.808;2024-01-11T01:34:07;11.00;50.10
62583;DHT22;48641;51.676;5.808;2024-01-11T01:36:32;11.00;50.10
62583;DHT22;48641;51.676;5.808;2024-01-11T01:38:58;11.00;50.10
62583;DHT22;48641;51.676;5.808;2024-01-11T01:41:24;11.00;50.10
62583;DHT22;48641;51.676;5.808;2024-01-11T01:43:49;11.00;50.20
62583;DHT22;48641;51.676;5.808;2024-01-11T01:46:22;11.00;50.20
62583;DHT22;48641;51.676;5.808;2024-01-11T01:48:48;11.00;50.20
62583;DHT22;48641;51.676;5.808;2024-01-11T01:51:14;11.00;50.20
62583;DHT22;48641;51.676;5.808;2024-01-11T01:53:40;11.10;50.20
62583;DHT22;48641;51.676;5.808;2024-01-11T01:56:07;11.10;50.20
62583;DHT22;48641;51.676;5.808;2024-01-11T01:58:34;11.10;50.20
62583;DHT22;48641;51.676;5.808;2024-01-11T02:01:00;11.10;51.20
62583;DHT22;48641;51.676;5.808;2024-01-11T02:03:28;11.20;50.20
62583;DHT22;48641;51.676;5.808;2024-01-11T02:05:54;11.20;50.10
62583;DHT22;48641;51.676;5.808;2024-01-11T02:08:22;11.20;50.10
62583;DHT22;48641;51.676;5.808;2024-01-11T02:10:48;11.30;50.10
62583;DHT22;48641;51.676;5.808;2024-01-11T02:13:14;11.30;50.00
62583;DHT22;48641;51.676;5.808;2024-01-11T02:15:40;11.40;50.00
62583;DHT22;48641;51.676;5.808;2024-01-11T02:18:06;11.40;50.00
62583;DHT22;48641;51.676;5.808;2024-01-11T02:20:32;11.40;49.90
62583;DHT22;48641;51.676;5.808;2024-01-11T02:23:04;11.40;49.80
62583;DHT22;48641;51.676;5.808;2024-01-11T02:25:30;11.50;49.50
62583;DHT22;48641;51.676;5.808;2024-01-11T02:27:56;11.50;49.80
62583;DHT22;48641;51.676;5.808;2024-01-11T02:30:21;11.50;49.70
62583;DHT22;48641;51.676;5.808;2024-01-11T02:32:49;11.50;49.60
62583;DHT22;48641;51.676;5.808;2024-01-11T02:35:15;11.60;49.70
62583;DHT22;48641;51.676;5.808;2024-01-11T02:37:41;11.60;49.70
62583;DHT22;48641;51.676;5.808;2024-01-11T02:40:08;11.60;49.60
62583;DHT22;48641;51.676;5.808;2024-01-11T02:42:34;11.70;49.60
62583;DHT22;48641;51.676;5.808;2024-01-11T02:45:00;11.70;49.50
62583;DHT22;48641;51.676;5.808;2024-01-11T02:47:27;11.70;49.50
62583;DHT22;48641;51.676;5.808;2024-01-11T02:49:52;11.70;49.40
62583;DHT22;48641;51.676;5.808;2024-01-11T02:52:18;11.70;49.30
62583;DHT22;48641;51.676;5.808;2024-01-11T02:54:43;11.70;49.20
62583;DHT22;48641;51.676;5.808;2024-01-11T02:57:09;11.70;49.30
62583;DHT22;48641;51.676;5.808;2024-01-11T02:59:35;11.70;49.30
62583;DHT22;48641;51.676;5.808;2024-01-11T03:02:01;11.70;49.30
62583;DHT22;48641;51.676;5.808;2024-01-11T03:04:27;11.70;48.90
62583;DHT22;48641;51.676;5.808;2024-01-11T03:06:52;11.70;47.60
62583;DHT22;48641;51.676;5.808;2024-01-11T03:09:18;11.70;48.50
62583;DHT22;48641;51.676;5.808;2024-01-11T03:11:43;11.80;49.00
62583;DHT22;48641;51.676;5.808;2024-01-11T03:14:09;11.80;49.10
62583;DHT22;48641;51.676;5.808;2024-01-11T03:16:35;11.80;49.30
62583;DHT22;48641;51.676;5.808;2024-01-11T03:19:00;11.80;48.80
62583;DHT22;48641;51.676;5.808;2024-01-11T03:21:26;11.80;49.00
62583;DHT22;48641;51.676;5.808;2024-01-11T03:23:51;11.90;49.10
62583;DHT22;48641;51.676;5.808;2024-01-11T03:26:17;11.90;49.20
62583;DHT22;48641;51.676;5.808;2024-01-11T03:28:43;11.90;49.10
62583;DHT22;48641;51.676;5.808;2024-01-11T03:31:09;11.90;49.20
62583;DHT22;48641;51.676;5.808;2024-01-11T03:33:35;11.90;49.10
62583;DHT22;48641;51.676;5.808;2024-01-11T03:36:11;11.90;49.10
62583;DHT22;48641;51.676;5.808;2024-01-11T03:38:37;12.00;49.10
62583;DHT22;48641;51.676;5.808;2024-01-11T03:41:10;12.00;49.10
62583;DHT22;48641;51.676;5.808;2024-01-11T03:43:36;12.00;49.00
62583;DHT22;48641;51.676;5.808;2024-01-11T03:46:03;12.00;48.90
62583;DHT22;48641;51.676;5.808;2024-01-11T03:48:28;12.00;48.90
62583;DHT22;48641;51.676;5.808;2024-01-11T03:50:54;12.00;48.90
62583;DHT22;48641;51.676;5.808;2024-01-11T03:53:19;12.00;48.80
62583;DHT22;48641;51.676;5.808;2024-01-11T03:55:45;12.10;48.90
62583;DHT22;48641;51.676;5.808;2024-01-11T03:58:11;12.10;48.50
62583;DHT22;48641;51.676;5.808;2024-01-11T04:00:37;12.10;47.90
62583;DHT22;48641;51.676;5.808;2024-01-11T04:03:02;12.10;47.60
62583;DHT22;48641;51.676;5.808;2024-01-11T04:05:28;12.10;47.20
62583;DHT22;48641;51.676;5.808;2024-01-11T04:07:54;12.10;47.30
62583;DHT22;48641;51.676;5.808;2024-01-11T04:10:19;12.10;46.10
62583;DHT22;48641;51.676;5.808;2024-01-11T04:12:45;12.10;46.90
62583;DHT22;48641;51.676;5.808;2024-01-11T04:15:13;12.10;47.70
62583;DHT22;48641;51.676;5.808;2024-01-11T04:17:40;12.10;48.10
62583;DHT22;48641;51.676;5.808;2024-01-11T04:20:07;12.10;48.30
62583;DHT22;48641;51.676;5.808;2024-01-11T04:22:34;12.10;47.80
62583;DHT22;48641;51.676;5.808;2024-01-11T04:24:59;12.10;48.30
62583;DHT22;48641;51.676;5.808;2024-01-11T04:27:25;12.10;48.50
62583;DHT22;48641;51.676;5.808;2024-01-11T04:29:51;12.10;48.50
62583;DHT22;48641;51.676;5.808;2024-01-11T04:32:17;12.10;48.60
62583;DHT22;48641;51.676;5.808;2024-01-11T04:34:42;12.10;48.30
62583;DHT22;48641;51.676;5.808;2024-01-11T04:37:08;12.20;48.60
62583;DHT22;48641;51.676;5.808;2024-01-11T04:39:33;12.10;48.60
62583;DHT22;48641;51.676;5.808;2024-01-11T04:41:59;12.10;48.60
62583;DHT22;48641;51.676;5.808;2024-01-11T04:44:26;12.20;47.90
62583;DHT22;48641;51.676;5.808;2024-01-11T04:46:51;12.20;48.00
62583;DHT22;48641;51.676;5.808;2024-01-11T04:49:17;12.20;48.40
62583;DHT22;48641;51.676;5.808;2024-01-11T04:51:42;12.20;48.50
62583;DHT22;48641;51.676;5.808;2024-01-11T04:54:08;12.20;48.60
62583;DHT22;48641;51.676;5.808;2024-01-11T04:56:34;12.20;48.60
62583;DHT22;48641;51.676;5.808;2024-01-11T04:58:59;12.20;48.60
62583;DHT22;48641;51.676;5.808;2024-01-11T05:01:25;12.20;48.00
62583;DHT22;48641;51.676;5.808;2024-01-11T05:03:50;12.20;48.20
62583;DHT22;48641;51.676;5.808;2024-01-11T05:06:19;12.20;48.40
62583;DHT22;48641;51.676;5.808;2024-01-11T05:08:54;12.20;48.10
62583;DHT22;48641;51.676;5.808;2024-01-11T05:11:21;12.20;48.50
62583;DHT22;48641;51.676;5.808;2024-01-11T05:13:49;12.10;48.60
62583;DHT22;48641;51.676;5.808;2024-01-11T05:16:26;12.10;48.60
62583;DHT22;48641;51.676;5.808;2024-01-11T05:18:53;12.20;48.50
62583;DHT22;48641;51.676;5.808;2024-01-11T05:21:20;12.20;48.70
62583;DHT22;48641;51.676;5.808;2024-01-11T05:23:46;12.20;48.70
62583;DHT22;48641;51.676;5.808;2024-01-11T05:26:14;12.20;48.70
62583;DHT22;48641;51.676;5.808;2024-01-11T05:28:40;12.30;48.70
62583;DHT22;48641;51.676;5.808;2024-01-11T05:31:09;12.30;48.60
62583;DHT22;48641;51.676;5.808;2024-01-11T05:33:36;12.30;48.60
62583;DHT22;48641;51.676;5.808;2024-01-11T05:36:02;12.30;48.50
62583;DHT22;48641;51.676;5.808;2024-01-11T05:38:28;12.40;48.50
62583;DHT22;48641;51.676;5.808;2024-01-11T05:40:54;12.40;48.40
62583;DHT22;48641;51.676;5.808;2024-01-11T05:43:20;12.40;48.30
62583;DHT22;48641;51.676;5.808;2024-01-11T05:45:45;12.40;48.30
62583;DHT22;48641;51.676;5.808;2024-01-11T05:48:11;12.40;48.20
62583;DHT22;48641;51.676;5.808;2024-01-11T05:50:37;12.40;48.20
62583;DHT22;48641;51.676;5.808;2024-01-11T05:53:02;12.40;48.20
62583;DHT22;48641;51.676;5.808;2024-01-11T05:55:28;12.50;48.20
62583;DHT22;48641;51.676;5.808;2024-01-11T05:57:54;12.50;48.20
62583;DHT22;48641;51.676;5.808;2024-01-11T06:00:19;12.50;48.10
62583;DHT22;48641;51.676;5.808;2024-01-11T06:02:45;12.50;49.00
62583;DHT22;48641;51.676;5.808;2024-01-11T06:05:11;12.50;48.00
62583;DHT22;48641;51.676;5.808;2024-01-11T06:07:38;12.50;48.00
62583;DHT22;48641;51.676;5.808;2024-01-11T06:10:04;12.50;47.90
62583;DHT22;48641;51.676;5.808;2024-01-11T06:12:31;12.50;48.00
62583;DHT22;48641;51.676;5.808;2024-01-11T06:14:57;12.50;47.90
62583;DHT22;48641;51.676;5.808;2024-01-11T06:17:23;12.50;47.90
62583;DHT22;48641;51.676;5.808;2024-01-11T06:19:49;12.50;47.80
62583;DHT22;48641;51.676;5.808;2024-01-11T06:22:15;12.60;47.80
62583;DHT22;48641;51.676;5.808;2024-01-11T06:24:40;12.50;47.80
62583;DHT22;48641;51.676;5.808;2024-01-11T06:27:06;12.60;48.00
62583;DHT22;48641;51.676;5.808;2024-01-11T06:29:32;12.50;49.30
62583;DHT22;48641;51.676;5.808;2024-01-11T06:31:58;12.50;48.60
62583;DHT22;48641;51.676;5.808;2024-01-11T06:34:23;12.50;49.00
62583;DHT22;48641;51.676;5.808;2024-01-11T06:36:49;12.60;49.40
62583;DHT22;48641;51.676;5.808;2024-01-11T06:39:15;12.60;49.50
62583;DHT22;48641;51.676;5.808;2024-01-11T06:41:40;12.60;49.70
62583;DHT22;48641;51.676;5.808;2024-01-11T06:44:06;12.60;49.80
62583;DHT22;48641;51.676;5.808;2024-01-11T06:46:31;12.60;49.80
62583;DHT22;48641;51.676;5.808;2024-01-11T06:48:57;12.60;49.80
62583;DHT22;48641;51.676;5.808;2024-01-11T06:51:23;12.60;49.80
62583;DHT22;48641;51.676;5.808;2024-01-11T06:53:49;12.60;49.80
62583;DHT22;48641;51.676;5.808;2024-01-11T06:56:19;12.60;49.80
62583;DHT22;48641;51.676;5.808;2024-01-11T06:58:46;12.70;49.90
62583;DHT22;48641;51.676;5.808;2024-01-11T07:01:12;12.70;50.00
62583;DHT22;48641;51.676;5.808;2024-01-11T07:03:41;12.70;49.90
62583;DHT22;48641;51.676;5.808;2024-01-11T07:06:07;12.70;49.80
62583;DHT22;48641;51.676;5.808;2024-01-11T07:08:32;12.70;49.80
62583;DHT22;48641;51.676;5.808;2024-01-11T07:11:00;12.70;49.80
62583;DHT22;48641;51.676;5.808;2024-01-11T07:13:26;12.80;49.80
62583;DHT22;48641;51.676;5.808;2024-01-11T07:15:51;12.80;49.80
62583;DHT22;48641;51.676;5.808;2024-01-11T07:18:17;12.80;49.70
62583;DHT22;48641;51.676;5.808;2024-01-11T07:20:43;12.80;49.70
62583;DHT22;48641;51.676;5.808;2024-01-11T07:23:09;12.80;49.70
62583;DHT22;48641;51.676;5.808;2024-01-11T07:25:35;12.80;49.70
62583;DHT22;48641;51.676;5.808;2024-01-11T07:28:01;12.80;49.50
62583;DHT22;48641;51.676;5.808;2024-01-11T07:30:26;12.90;49.60
62583;DHT22;48641;51.676;5.808;2024-01-11T07:32:52;12.90;49.60
62583;DHT22;48641;51.676;5.808;2024-01-11T07:35:18;12.90;49.60
62583;DHT22;48641;51.676;5.808;2024-01-11T07:37:43;12.90;49.60
62583;DHT22;48641;51.676;5.808;2024-01-11T07:40:09;12.90;49.50
62583;DHT22;48641;51.676;5.808;2024-01-11T07:42:39;12.90;49.50
62583;DHT22;48641;51.676;5.808;2024-01-11T07:45:06;12.90;49.50
62583;DHT22;48641;51.676;5.808;2024-01-11T07:47:32;12.90;49.40
62583;DHT22;48641;51.676;5.808;2024-01-11T07:49:58;12.90;49.40
62583;DHT22;48641;51.676;5.808;2024-01-11T07:52:23;12.90;49.30
62583;DHT22;48641;51.676;5.808;2024-01-11T07:54:49;12.90;49.20
62583;DHT22;48641;51.676;5.808;2024-01-11T07:57:14;12.90;49.20
62583;DHT22;48641;51.676;5.808;2024-01-11T07:59:40;12.90;49.20
62583;DHT22;48641;51.676;5.808;2024-01-11T08:02:06;12.90;49.00
62583;DHT22;48641;51.676;5.808;2024-01-11T08:04:32;12.90;48.90
62583;DHT22;48641;51.676;5.808;2024-01-11T08:06:58;13.00;48.80
62583;DHT22;48641;51.676;5.808;2024-01-11T08:09:28;13.00;48.70
62583;DHT22;48641;51.676;5.808;2024-01-11T08:11:53;13.00;48.70
62583;DHT22;48641;51.676;5.808;2024-01-11T08:14:20;13.00;48.50
62583;DHT22;48641;51.676;5.808;2024-01-11T08:16:46;13.00;48.40
62583;DHT22;48641;51.676;5.808;2024-01-11T08:19:11;13.00;48.30
62583;DHT22;48641;51.676;5.808;2024-01-11T08:21:39;13.00;48.30
62583;DHT22;48641;51.676;5.808;2024-01-11T08:24:05;13.00;48.20
62583;DHT22;48641;51.676;5.808;2024-01-11T08:26:32;13.00;48.20
62583;DHT22;48641;51.676;5.808;2024-01-11T08:28:57;13.00;48.20
62583;DHT22;48641;51.676;5.808;2024-01-11T08:31:23;13.00;48.20
62583;DHT22;48641;51.676;5.808;2024-01-11T08:33:49;13.00;48.30
62583;DHT22;48641;51.676;5.808;2024-01-11T08:36:15;13.00;48.30
62583;DHT22;48641;51.676;5.808;2024-01-11T08:38:41;13.00;48.30
62583;DHT22;48641;51.676;5.808;2024-01-11T08:41:06;12.90;48.30
62583;DHT22;48641;51.676;5.808;2024-01-11T08:43:32;12.90;48.30
62583;DHT22;48641;51.676;5.808;2024-01-11T08:45:58;12.90;48.40
62583;DHT22;48641;51.676;5.808;2024-01-11T08:48:24;12.90;48.40
62583;DHT22;48641;51.676;5.808;2024-01-11T08:50:49;12.90;48.40
62583;DHT22;48641;51.676;5.808;2024-01-11T08:53:15;12.80;48.40
62583;DHT22;48641;51.676;5.808;2024-01-11T08:55:43;12.80;48.40
62583;DHT22;48641;51.676;5.808;2024-01-11T08:58:09;12.80;48.40
62583;DHT22;48641;51.676;5.808;2024-01-11T09:00:37;12.80;48.40
62583;DHT22;48641;51.676;5.808;2024-01-11T09:03:03;12.80;48.40
62583;DHT22;48641;51.676;5.808;2024-01-11T09:05:29;12.80;48.40
62583;DHT22;48641;51.676;5.808;2024-01-11T09:07:54;12.80;48.40
62583;DHT22;48641;51.676;5.808;2024-01-11T09:10:20;12.80;47.40
62583;DHT22;48641;51.676;5.808;2024-01-11T09:12:46;12.90;48.80
62583;DHT22;48641;51.676;5.808;2024-01-11T09:15:12;12.90;47.60
62583;DHT22;48641;51.676;5.808;2024-01-11T09:17:40;12.90;47.80
62583;DHT22;48641;51.676;5.808;2024-01-11T09:20:06;12.80;47.90
62583;DHT22;48641;51.676;5.808;2024-01-11T09:22:32;12.80;48.10
62583;DHT22;48641;51.676;5.808;2024-01-11T09:24:58;12.80;48.20
62583;DHT22;48641;51.676;5.808;2024-01-11T09:27:23;12.80;47.70
62583;DHT22;48641;51.676;5.808;2024-01-11T09:29:49;12.80;48.00
62583;DHT22;48641;51.676;5.808;2024-01-11T09:32:17;12.70;46.90
62583;DHT22;48641;51.676;5.808;2024-01-11T09:34:43;12.70;45.60
62583;DHT22;48641;51.676;5.808;2024-01-11T09:37:10;12.70;46.00
62583;DHT22;48641;51.676;5.808;2024-01-11T09:39:36;12.60;46.90
62583;DHT22;48641;51.676;5.808;2024-01-11T09:42:07;12.60;46.30
62583;DHT22;48641;51.676;5.808;2024-01-11T09:44:35;12.60;46.60
62583;DHT22;48641;51.676;5.808;2024-01-11T09:47:01;12.50;47.80
62583;DHT22;48641;51.676;5.808;2024-01-11T09:49:30;12.50;46.50
62583;DHT22;48641;51.676;5.808;2024-01-11T09:51:56;12.50;47.10
62583;DHT22;48641;51.676;5.808;2024-01-11T09:54:25;12.50;47.90
62583;DHT22;48641;51.676;5.808;2024-01-11T09:56:53;12.50;48.00
62583;DHT22;48641;51.676;5.808;2024-01-11T09:59:20;12.50;48.00
62583;DHT22;48641;51.676;5.808;2024-01-11T10:01:49;12.50;48.40
62583;DHT22;48641;51.676;5.808;2024-01-11T10:04:16;12.50;48.30
62583;DHT22;48641;51.676;5.808;2024-01-11T10:06:43;12.50;48.50
62583;DHT22;48641;51.676;5.808;2024-01-11T10:09:09;12.40;47.40
62583;DHT22;48641;51.676;5.808;2024-01-11T10:11:35;12.40;46.70
62583;DHT22;48641;51.676;5.808;2024-01-11T10:14:00;12.40;45.50
62583;DHT22;48641;51.676;5.808;2024-01-11T10:16:28;12.40;45.30
62583;DHT22;48641;51.676;5.808;2024-01-11T10:18:54;12.40;45.70
62583;DHT22;48641;51.676;5.808;2024-01-11T10:21:21;12.30;47.20
62583;DHT22;48641;51.676;5.808;2024-01-11T10:23:47;12.30;46.80
62583;DHT22;48641;51.676;5.808;2024-01-11T10:26:15;12.30;45.80
62583;DHT22;48641;51.676;5.808;2024-01-11T10:28:44;12.30;45.80
62583;DHT22;48641;51.676;5.808;2024-01-11T10:31:10;12.30;46.50
62583;DHT22;48641;51.676;5.808;2024-01-11T10:33:36;12.30;47.20
62583;DHT22;48641;51.676;5.808;2024-01-11T10:36:03;12.30;45.80
62583;DHT22;48641;51.676;5.808;2024-01-11T10:38:30;12.40;45.70
62583;DHT22;48641;51.676;5.808;2024-01-11T10:41:00;12.40;45.80
62583;DHT22;48641;51.676;5.808;2024-01-11T10:43:26;12.50;45.70
62583;DHT22;48641;51.676;5.808;2024-01-11T10:45:55;12.60;45.40
62583;DHT22;48641;51.676;5.808;2024-01-11T10:48:25;12.70;45.00
62583;DHT22;48641;51.676;5.808;2024-01-11T10:50:54;12.80;44.10
62583;DHT22;48641;51.676;5.808;2024-01-11T10:56:03;12.90;45.70
62583;DHT22;48641;51.676;5.808;2024-01-11T10:58:30;13.00;45.00
62583;DHT22;48641;51.676;5.808;2024-01-11T11:00:57;13.00;44.70
62583;DHT22;48641;51.676;5.808;2024-01-11T11:03:25;13.10;43.90
62583;DHT22;48641;51.676;5.808;2024-01-11T11:05:54;13.20;43.40
62583;DHT22;48641;51.676;5.808;2024-01-11T11:08:23;13.30;43.90
62583;DHT22;48641;51.676;5.808;2024-01-11T11:11:00;13.30;43.30
62583;DHT22;48641;51.676;5.808;2024-01-11T11:13:27;13.40;43.20
62583;DHT22;48641;51.676;5.808;2024-01-11T11:15:53;13.40;43.10
62583;DHT22;48641;51.676;5.808;2024-01-11T11:18:20;13.50;42.10
62583;DHT22;48641;51.676;5.808;2024-01-11T11:20:47;13.50;42.70
62583;DHT22;48641;51.676;5.808;2024-01-11T11:23:15;13.50;43.60
62583;DHT22;48641;51.676;5.808;2024-01-11T11:25:45;13.50;44.70
62583;DHT22;48641;51.676;5.808;2024-01-11T11:28:17;13.50;43.30
62583;DHT22;48641;51.676;5.808;2024-01-11T11:30:44;13.50;43.50
62583;DHT22;48641;51.676;5.808;2024-01-11T11:33:25;13.50;43.00
62583;DHT22;48641;51.676;5.808;2024-01-11T11:36:12;13.50;41.00
62583;DHT22;48641;51.676;5.808;2024-01-11T11:38:39;13.40;44.00
62583;DHT22;48641;51.676;5.808;2024-01-11T11:41:05;13.40;43.60
62583;DHT22;48641;51.676;5.808;2024-01-11T11:43:31;13.40;44.80
62583;DHT22;48641;51.676;5.808;2024-01-11T11:45:57;13.30;45.20
62583;DHT22;48641;51.676;5.808;2024-01-11T11:53:40;13.20;42.60
62583;DHT22;48641;51.676;5.808;2024-01-11T11:56:06;13.20;43.50
62583;DHT22;48641;51.676;5.808;2024-01-11T11:58:34;13.20;43.80
62583;DHT22;48641;51.676;5.808;2024-01-11T12:01:00;13.10;44.80
62583;DHT22;48641;51.676;5.808;2024-01-11T12:03:29;13.10;45.80
62583;DHT22;48641;51.676;5.808;2024-01-11T12:05:59;13.10;45.80
62583;DHT22;48641;51.676;5.808;2024-01-11T12:08:25;13.10;46.50
62583;DHT22;48641;51.676;5.808;2024-01-11T12:10:52;13.00;46.60
62583;DHT22;48641;51.676;5.808;2024-01-11T12:13:18;13.00;44.60
62583;DHT22;48641;51.676;5.808;2024-01-11T12:15:44;13.10;46.20
62583;DHT22;48641;51.676;5.808;2024-01-11T12:18:10;13.10;46.80
62583;DHT22;48641;51.676;5.808;2024-01-11T12:20:35;13.10;47.00
62583;DHT22;48641;51.676;5.808;2024-01-11T12:23:01;13.00;46.20
62583;DHT22;48641;51.676;5.808;2024-01-11T12:25:28;13.00;46.60
62583;DHT22;48641;51.676;5.808;2024-01-11T12:27:54;13.00;45.80
62583;DHT22;48641;51.676;5.808;2024-01-11T12:30:24;13.00;44.90
62583;DHT22;48641;51.676;5.808;2024-01-11T12:32:50;13.00;44.20
62583;DHT22;48641;51.676;5.808;2024-01-11T12:35:17;13.00;45.00
62583;DHT22;48641;51.676;5.808;2024-01-11T12:38:04;12.90;44.70
62583;DHT22;48641;51.676;5.808;2024-01-11T12:40:36;12.90;43.80
62583;DHT22;48641;51.676;5.808;2024-01-11T12:43:05;12.90;44.90
62583;DHT22;48641;51.676;5.808;2024-01-11T12:45:33;12.90;45.60
62583;DHT22;48641;51.676;5.808;2024-01-11T12:48:00;12.90;45.20
62583;DHT22;48641;51.676;5.808;2024-01-11T12:50:26;12.80;45.20
62583;DHT22;48641;51.676;5.808;2024-01-11T12:53:10;12.80;45.60
62583;DHT22;48641;51.676;5.808;2024-01-11T12:55:37;12.80;45.00
62583;DHT22;48641;51.676;5.808;2024-01-11T12:58:05;12.80;46.30
62583;DHT22;48641;51.676;5.808;2024-01-11T13:00:30;12.80;46.30
62583;DHT22;48641;51.676;5.808;2024-01-11T13:02:56;12.70;46.00
62583;DHT22;48641;51.676;5.808;2024-01-11T13:05:22;12.70;46.00
62583;DHT22;48641;51.676;5.808;2024-01-11T13:07:47;12.70;46.70
62583;DHT22;48641;51.676;5.808;2024-01-11T13:10:13;12.70;47.30
62583;DHT22;48641;51.676;5.808;2024-01-11T13:12:40;12.70;47.00
62583;DHT22;48641;51.676;5.808;2024-01-11T13:15:06;12.70;46.60
62583;DHT22;48641;51.676;5.808;2024-01-11T13:17:31;12.70;47.40
62583;DHT22;48641;51.676;5.808;2024-01-11T13:19:57;12.70;46.70
62583;DHT22;48641;51.676;5.808;2024-01-11T13:22:24;12.70;47.70
62583;DHT22;48641;51.676;5.808;2024-01-11T13:24:50;12.70;47.00
62583;DHT22;48641;51.676;5.808;2024-01-11T13:27:16;12.70;47.20
62583;DHT22;48641;51.676;5.808;2024-01-11T13:29:41;12.70;47.90
62583;DHT22;48641;51.676;5.808;2024-01-11T13:32:07;12.70;48.10
62583;DHT22;48641;51.676;5.808;2024-01-11T13:34:32;12.70;48.30
62583;DHT22;48641;51.676;5.808;2024-01-11T13:36:58;12.70;48.20
62583;DHT22;48641;51.676;5.808;2024-01-11T13:39:25;12.70;47.90
62583;DHT22;48641;51.676;5.808;2024-01-11T13:41:51;12.70;47.50
62583;DHT22;48641;51.676;5.808;2024-01-11T13:44:16;12.70;47.70
62583;DHT22;48641;51.676;5.808;2024-01-11T13:46:42;12.70;47.60
62583;DHT22;48641;51.676;5.808;2024-01-11T13:49:09;12.60;48.30
62583;DHT22;48641;51.676;5.808;2024-01-11T13:51:34;12.60;47.80
62583;DHT22;48641;51.676;5.808;2024-01-11T13:54:00;12.60;48.20
62583;DHT22;48641;51.676;5.808;2024-01-11T13:56:27;12.60;48.00
62583;DHT22;48641;51.676;5.808;2024-01-11T13:58:52;12.60;48.40
62583;DHT22;48641;51.676;5.808;2024-01-11T14:01:18;12.70;48.80
62583;DHT22;48641;51.676;5.808;2024-01-11T14:03:44;12.60;48.80
62583;DHT22;48641;51.676;5.808;2024-01-11T14:06:09;12.60;48.60
62583;DHT22;48641;51.676;5.808;2024-01-11T14:08:35;12.60;48.90
62583;DHT22;48641;51.676;5.808;2024-01-11T14:11:01;12.70;49.10
62583;DHT22;48641;51.676;5.808;2024-01-11T14:13:26;12.60;49.20
62583;DHT22;48641;51.676;5.808;2024-01-11T14:15:52;12.70;49.20
62583;DHT22;48641;51.676;5.808;2024-01-11T14:18:20;12.70;49.20
62583;DHT22;48641;51.676;5.808;2024-01-11T14:20:46;12.70;49.20
62583;DHT22;48641;51.676;5.808;2024-01-11T14:23:11;12.70;49.20
62583;DHT22;48641;51.676;5.808;2024-01-11T14:25:37;12.80;49.30
62583;DHT22;48641;51.676;5.808;2024-01-11T14:28:03;12.80;49.20
62583;DHT22;48641;51.676;5.808;2024-01-11T14:30:29;12.80;49.20
62583;DHT22;48641;51.676;5.808;2024-01-11T14:32:55;12.80;49.20
62583;DHT22;48641;51.676;5.808;2024-01-11T14:35:20;12.90;49.20
62583;DHT22;48641;51.676;5.808;2024-01-11T14:37:46;12.90;49.10
62583;DHT22;48641;51.676;5.808;2024-01-11T14:40:12;13.00;49.10
62583;DHT22;48641;51.676;5.808;2024-01-11T14:42:39;13.00;49.00
62583;DHT22;48641;51.676;5.808;2024-01-11T14:45:05;13.00;49.00
62583;DHT22;48641;51.676;5.808;2024-01-11T14:47:31;13.10;48.90
62583;DHT22;48641;51.676;5.808;2024-01-11T14:49:58;13.10;48.80
62583;DHT22;48641;51.676;5.808;2024-01-11T14:52:24;13.20;48.70
62583;DHT22;48641;51.676;5.808;2024-01-11T14:54:49;13.20;48.60
62583;DHT22;48641;51.676;5.808;2024-01-11T14:57:16;13.30;48.60
62583;DHT22;48641;51.676;5.808;2024-01-11T14:59:43;13.30;48.40
62583;DHT22;48641;51.676;5.808;2024-01-11T15:02:08;13.40;48.30
62583;DHT22;48641;51.676;5.808;2024-01-11T15:04:35;13.40;48.30
62583;DHT22;48641;51.676;5.808;2024-01-11T15:07:01;13.50;48.30
62583;DHT22;48641;51.676;5.808;2024-01-11T15:09:27;13.50;48.10
62583;DHT22;48641;51.676;5.808;2024-01-11T15:11:52;13.60;48.10
62583;DHT22;48641;51.676;5.808;2024-01-11T15:14:18;13.60;48.10
62583;DHT22;48641;51.676;5.808;2024-01-11T15:16:44;13.60;49.10
62583;DHT22;48641;51.676;5.808;2024-01-11T15:19:11;13.60;47.90
62583;DHT22;48641;51.676;5.808;2024-01-11T15:21:38;13.70;47.90
62583;DHT22;48641;51.676;5.808;2024-01-11T15:24:04;13.70;47.80
62583;DHT22;48641;51.676;5.808;2024-01-11T15:26:30;13.70;47.80
62583;DHT22;48641;51.676;5.808;2024-01-11T15:28:56;13.70;47.60
62583;DHT22;48641;51.676;5.808;2024-01-11T15:31:21;13.70;47.60
62583;DHT22;48641;51.676;5.808;2024-01-11T15:33:48;13.70;47.60